Terminal Aerodrome Forecast
Issued by NWS Charleston, WV

Current Version | Previous Version | Graphics & Text | Print | Product List | Glossary On
Versions: 1 2 3 4 5 6 7 8 9 10 11 12 13 14 15 16 17 18 19 20 21 22 23 24 25 26 27 28 29 30
000
FTUS41 KRLX 191100
TAFBKW
TAF
KBKW 191131Z 1912/2012 32008KT P6SM BKN006 OVC013
     FM191400 31007KT 5SM BR SCT008
     FM191900 30007KT P6SM FEW100
     FM192300 00000KT P6SM SKC
     FM200800 17003KT P6SM FEW110=

USA.gov is the U.S. government's official web portal to all federal, state and local government web resources and services.